Time;durP1;ratioP1;P1;durP2;ratioP2;P2;SDS_P1;SDS_P2;PMS_P1;PMS_P2;Temp;Humidity;BMP_temperature;BMP_pressure;BME280_temperature;BME280_humidity;BME280_pressure;Samples;Min_cycle;Max_cycle;Signal;HPM_P1;HPM_P2
2022/12/14 00:02:20;;;;;;;18.57;9.40;;;-2.80;57.30;;;;;;4967755;28;46445;-63
2022/12/14 00:04:45;;;;;;;20.50;9.60;;;-2.80;57.20;;;;;;4970738;28;46443;-64
2022/12/14 00:07:11;;;;;;;17.63;8.30;;;-2.80;57.30;;;;;;4971486;28;46266;-64
2022/12/14 00:09:37;;;;;;;14.97;8.30;;;-2.70;56.50;;;;;;4972329;28;46635;-65
2022/12/14 00:12:02;;;;;;;16.77;8.50;;;-2.70;57.50;;;;;;4971809;28;46403;-64
2022/12/14 00:14:28;;;;;;;16.30;9.10;;;-2.70;57.20;;;;;;4970629;28;46436;-65
2022/12/14 00:16:53;;;;;;;16.93;9.13;;;-2.60;57.10;;;;;;4971268;28;45913;-65
2022/12/14 00:19:19;;;;;;;18.70;10.20;;;-2.60;57.00;;;;;;4971594;28;46440;-64
2022/12/14 00:21:44;;;;;;;13.70;7.67;;;-2.60;55.90;;;;;;4973057;28;46648;-64
2022/12/14 00:24:10;;;;;;;17.83;9.50;;;-2.60;57.00;;;;;;4969083;28;46383;-65
2022/12/14 00:26:36;;;;;;;15.63;8.83;;;-2.60;57.00;;;;;;4970867;28;46497;-64
2022/12/14 00:29:02;;;;;;;13.50;8.10;;;-2.50;56.90;;;;;;4968896;28;46347;-64
2022/12/14 00:31:28;;;;;;;15.53;8.57;;;-2.50;55.60;;;;;;4968324;28;46388;-63
2022/12/14 00:33:54;;;;;;;14.40;8.68;;;-2.50;56.80;;;;;;4969858;28;47280;-64
2022/12/14 00:36:20;;;;;;;15.50;8.43;;;-2.40;57.10;;;;;;4970515;28;45882;-63
2022/12/14 00:38:46;;;;;;;15.88;9.32;;;-2.50;57.30;;;;;;4972256;28;46433;-64
2022/12/14 00:41:12;;;;;;;15.70;8.87;;;-2.50;56.20;;;;;;4971369;28;46340;-64
2022/12/14 00:43:38;;;;;;;16.52;8.43;;;-2.40;57.30;;;;;;4972177;28;47705;-63
2022/12/14 00:46:04;;;;;;;14.45;9.45;;;-2.30;57.30;;;;;;4970889;28;46347;-64
2022/12/14 00:48:30;;;;;;;16.33;8.30;;;-2.50;58.40;;;;;;4969243;28;46408;-64
2022/12/14 00:50:56;;;;;;;13.73;8.10;;;-2.50;56.30;;;;;;4969776;28;46258;-63
2022/12/14 00:53:23;;;;;;;15.70;9.23;;;-2.50;57.30;;;;;;4969457;28;46415;-63
2022/12/14 00:55:50;;;;;;;19.23;9.50;;;-2.50;57.00;;;;;;4968405;28;46344;-64
2022/12/14 00:58:19;;;;;;;14.88;8.60;;;-2.50;57.00;;;;;;4971379;28;46528;-64
2022/12/14 01:00:46;;;;;;;20.15;9.55;;;-2.50;56.00;;;;;;4966053;28;46547;-63
2022/12/14 01:03:12;;;;;;;19.45;9.23;;;-2.50;57.10;;;;;;4968684;28;46631;-62
2022/12/14 01:05:38;;;;;;;14.13;8.30;;;-2.50;57.20;;;;;;4969049;28;46413;-63
2022/12/14 01:08:05;;;;;;;15.98;8.82;;;-2.40;57.00;;;;;;4970779;28;46490;-64
2022/12/14 01:10:30;;;;;;;17.73;9.60;;;-2.30;55.50;;;;;;4968199;28;46499;-64
2022/12/14 01:12:56;;;;;;;17.20;10.20;;;-2.20;56.70;;;;;;4972337;28;46484;-64
2022/12/14 01:15:22;;;;;;;17.70;8.40;;;-2.20;56.60;;;;;;4972098;28;46410;-64
2022/12/14 01:17:50;;;;;;;20.93;9.50;;;-2.30;56.60;;;;;;4970592;28;46404;-64
2022/12/14 01:20:16;;;;;;;15.32;8.15;;;-2.20;55.70;;;;;;4969391;28;46591;-62
2022/12/14 01:22:41;;;;;;;16.87;8.60;;;-2.20;56.60;;;;;;4970414;28;46621;-63
2022/12/14 01:25:08;;;;;;;16.53;8.70;;;-2.10;56.50;;;;;;4981942;28;46432;-65
2022/12/14 01:27:34;;;;;;;15.00;8.40;;;-2.10;56.30;;;;;;4967699;28;46454;-64
2022/12/14 01:30:00;;;;;;;17.35;9.32;;;-2.10;56.40;;;;;;4969131;28;46441;-63
2022/12/14 01:32:26;;;;;;;22.23;10.23;;;-2.30;57.20;;;;;;4969362;28;47400;-64
2022/12/14 01:34:52;;;;;;;14.10;8.50;;;-2.40;57.70;;;;;;4968506;28;46337;-65
2022/12/14 01:37:17;;;;;;;21.77;9.40;;;-2.50;57.70;;;;;;4971499;28;46239;-64
2022/12/14 01:39:43;;;;;;;15.70;8.77;;;-2.40;57.90;;;;;;4967375;28;46624;-64
2022/12/14 01:42:12;;;;;;;16.30;8.80;;;-2.40;57.60;;;;;;4970510;28;47481;-64
2022/12/14 01:44:38;;;;;;;16.02;8.88;;;-2.40;57.20;;;;;;4969020;28;46647;-65
2022/12/14 01:47:25;;;;;;;15.87;8.93;;;-2.30;56.90;;;;;;4972876;28;46616;-64
2022/12/14 01:50:09;;;;;;;16.10;9.63;;;-2.50;56.30;;;;;;4973013;28;46388;-66
2022/12/14 01:52:42;;;;;;;18.60;10.77;;;-2.50;57.30;;;;;;4972723;28;46476;-64
2022/12/14 01:55:11;;;;;;;18.17;9.55;;;-2.50;57.50;;;;;;4972027;28;45965;-64
2022/12/14 01:57:46;;;;;;;16.35;9.68;;;-2.50;57.30;;;;;;4973705;28;46296;-62
2022/12/14 02:00:12;;;;;;;17.42;9.40;;;-2.50;56.50;;;;;;4975184;28;46305;-65
2022/12/14 02:02:53;;;;;;;21.10;9.98;;;-2.50;57.60;;;;;;4973851;28;46505;-63
2022/12/14 02:05:22;;;;;;;17.27;9.75;;;-2.50;57.70;;;;;;4975018;28;46456;-63
2022/12/14 02:07:50;;;;;;;13.93;9.18;;;-2.50;57.50;;;;;;4971431;28;46372;-64
2022/12/14 02:10:16;;;;;;;19.60;10.20;;;-2.50;56.50;;;;;;4971885;28;46555;-65
2022/12/14 02:12:47;;;;;;;16.85;9.77;;;-2.50;57.60;;;;;;4975445;28;47308;-63
2022/12/14 02:15:14;;;;;;;15.63;8.95;;;-2.60;57.50;;;;;;4971632;28;45988;-64
2022/12/14 02:17:43;;;;;;;14.98;9.05;;;-2.60;57.70;;;;;;4973514;28;46356;-64
2022/12/14 02:20:10;;;;;;;19.63;9.43;;;-2.70;57.10;;;;;;4989606;28;46686;-64
2022/12/14 02:22:45;;;;;;;16.55;10.05;;;-2.70;58.00;;;;;;4972112;28;46484;-64
2022/12/14 02:25:49;;;;;;;18.98;10.45;;;-2.60;58.00;;;;;;4971931;28;46789;-63
2022/12/14 02:28:17;;;;;;;17.02;9.20;;;-2.50;57.80;;;;;;4968489;28;46408;-63
2022/12/14 02:31:03;;;;;;;20.17;9.25;;;-2.50;56.40;;;;;;4969912;28;46618;-65
2022/12/14 02:33:56;;;;;;;14.75;8.98;;;-2.40;57.40;;;;;;4974164;28;47159;-63
2022/12/14 02:36:44;;;;;;;17.42;8.85;;;-2.30;57.10;;;;;;4975069;28;46686;-65
2022/12/14 02:39:29;;;;;;;17.60;9.52;;;-2.30;56.90;;;;;;4974020;28;46444;-64
2022/12/14 02:42:09;;;;;;;16.38;9.63;;;-2.40;56.20;;;;;;4971501;28;46273;-66
2022/12/14 02:44:57;;;;;;;17.02;8.82;;;-2.40;58.10;;;;;;4971494;28;47535;-63
2022/12/14 02:47:45;;;;;;;19.45;10.05;;;-2.50;57.40;;;;;;4972915;28;46529;-64
2022/12/14 02:50:28;;;;;;;20.40;10.05;;;-2.60;56.60;;;;;;4972191;28;46434;-64
2022/12/14 02:53:09;;;;;;;21.60;10.25;;;-2.60;57.70;;;;;;4973182;28;45989;-63
2022/12/14 02:55:41;;;;;;;19.23;9.77;;;-2.50;57.50;;;;;;4971376;28;46525;-63
2022/12/14 02:58:14;;;;;;;15.65;9.30;;;-2.50;57.30;;;;;;4971441;28;46391;-63
2022/12/14 03:00:41;;;;;;;16.90;9.60;;;-2.60;56.60;;;;;;4971625;28;46386;-63
2022/12/14 03:03:07;;;;;;;15.55;9.52;;;-2.60;57.70;;;;;;4970281;28;46449;-63
2022/12/14 03:05:33;;;;;;;18.13;9.55;;;-2.60;57.60;;;;;;4968279;28;46606;-64
2022/12/14 03:08:05;;;;;;;20.27;10.63;;;-2.50;57.70;;;;;;4966916;28;46656;-63
2022/12/14 03:10:41;;;;;;;17.65;10.00;;;-2.40;57.50;;;;;;4968565;28;46339;-64
2022/12/14 03:13:19;;;;;;;16.23;8.93;;;-2.50;57.40;;;;;;4971688;28;46696;-63
2022/12/14 03:15:54;;;;;;;17.73;10.38;;;-2.40;57.50;;;;;;4966871;28;46458;-63
2022/12/14 03:18:22;;;;;;;15.98;7.70;;;-2.30;57.20;;;;;;4969714;28;46675;-63
2022/12/14 03:20:52;;;;;;;15.13;9.18;;;-2.40;56.10;;;;;;4966253;28;46424;-63
2022/12/14 03:23:21;;;;;;;18.52;9.50;;;-2.40;57.20;;;;;;4969128;28;46538;-63
2022/12/14 03:26:11;;;;;;;18.08;9.68;;;-2.40;57.30;;;;;;4967962;28;46472;-63
2022/12/14 03:28:41;;;;;;;17.67;9.93;;;-2.30;57.20;;;;;;4969564;28;46716;-63
2022/12/14 03:31:27;;;;;;;19.58;9.50;;;-2.20;56.90;;;;;;4966594;28;46473;-63
2022/12/14 03:33:55;;;;;;;15.20;10.25;;;-2.30;56.90;;;;;;4971360;28;46381;-64
2022/12/14 03:36:25;;;;;;;20.95;9.98;;;-2.30;56.90;;;;;;4969485;28;46485;-63
2022/12/14 03:38:56;;;;;;;16.30;9.23;;;-2.30;57.20;;;;;;4969291;28;46553;-63
2022/12/14 03:41:47;;;;;;;17.77;9.35;;;-2.30;56.10;;;;;;4970410;28;46389;-64
2022/12/14 03:44:27;;;;;;;15.45;9.32;;;-2.20;57.20;;;;;;4972956;28;46608;-63
2022/12/14 03:47:22;;;;;;;18.73;9.35;;;-2.20;57.00;;;;;;4970547;28;47528;-65
2022/12/14 03:50:04;;;;;;;17.73;10.07;;;-2.30;56.20;;;;;;4965641;28;46588;-64
2022/12/14 03:52:41;;;;;;;17.50;10.30;;;-2.30;57.30;;;;;;4968967;28;46428;-64
2022/12/14 03:55:07;;;;;;;21.38;10.30;;;-2.20;57.20;;;;;;4971123;28;45732;-63
2022/12/14 03:57:45;;;;;;;16.92;10.20;;;-2.10;57.00;;;;;;4972478;28;46493;-63
2022/12/14 04:00:15;;;;;;;19.95;9.77;;;-2.10;55.70;;;;;;4970799;28;46472;-63
2022/12/14 04:03:00;;;;;;;20.50;11.10;;;-2.10;56.90;;;;;;4969713;28;45934;-63
2022/12/14 04:06:10;;;;;;;18.50;9.95;;;-2.10;57.00;;;;;;4971181;28;46716;-63
2022/12/14 04:08:54;;;;;;;17.83;9.55;;;-2.10;56.90;;;;;;4945010;28;46841;-63
2022/12/14 04:19:54;;;;;;;21.10;9.95;;;-2.30;56.40;;;;;;4973298;28;46442;-64
2022/12/14 04:22:27;;;;;;;17.60;9.55;;;-2.30;57.40;;;;;;4971267;28;46468;-64
2022/12/14 04:29:54;;;;;;;17.30;10.50;;;-2.20;57.50;;;;;;4972277;28;46343;-64
2022/12/14 04:31:01;;;;;;;18.15;10.95;;;-2.20;56.30;;;;;;4967070;28;46712;-64
2022/12/14 04:33:46;;;;;;;19.10;10.77;;;-2.10;57.40;;;;;;4971488;28;46471;-63
2022/12/14 04:36:23;;;;;;;16.15;9.95;;;-2.00;57.10;;;;;;4970455;28;46412;-63
2022/12/14 04:38:54;;;;;;;18.80;10.55;;;-1.90;56.70;;;;;;4970054;28;46459;-63
2022/12/14 04:41:23;;;;;;;19.65;9.75;;;-1.80;55.30;;;;;;4972013;28;46310;-63
2022/12/14 04:43:54;;;;;;;19.67;11.48;;;-1.80;56.20;;;;;;4970872;28;46347;-64
2022/12/14 04:46:28;;;;;;;19.70;11.68;;;-1.80;56.50;;;;;;4972450;28;46497;-64
2022/12/14 04:49:27;;;;;;;18.45;10.50;;;-1.90;56.80;;;;;;4972331;28;46411;-64
2022/12/14 04:52:03;;;;;;;20.92;10.88;;;-2.00;57.10;;;;;;4968309;28;46531;-63
2022/12/14 04:54:50;;;;;;;19.92;10.90;;;-1.90;57.00;;;;;;4969310;28;46406;-63
2022/12/14 04:57:49;;;;;;;46.88;20.67;;;-1.90;56.90;;;;;;4969868;28;46368;-65
2022/12/14 05:00:15;;;;;;;20.02;10.65;;;-1.90;56.80;;;;;;4969832;28;46480;-64
2022/12/14 05:02:59;;;;;;;20.63;11.25;;;-1.90;57.00;;;;;;4971383;28;46649;-64
2022/12/14 05:05:46;;;;;;;26.00;13.13;;;-1.90;57.00;;;;;;4972484;28;46324;-63
2022/12/14 05:08:17;;;;;;;34.47;15.55;;;-1.90;57.20;;;;;;4970119;28;46455;-64
2022/12/14 05:10:46;;;;;;;20.42;11.20;;;-1.90;57.40;;;;;;4970951;28;46555;-63
2022/12/14 05:13:15;;;;;;;22.67;12.32;;;-1.80;57.70;;;;;;4971720;28;47551;-63
2022/12/14 05:15:48;;;;;;;15.98;9.80;;;-1.70;57.40;;;;;;4972660;28;46791;-63
2022/12/14 05:18:14;;;;;;;20.70;11.75;;;-1.80;57.60;;;;;;4975949;28;46411;-63
2022/12/14 05:20:40;;;;;;;22.57;12.17;;;-1.90;57.70;;;;;;4970839;28;45926;-63
2022/12/14 05:23:05;;;;;;;23.27;11.90;;;-1.80;57.60;;;;;;4975480;28;46362;-62
2022/12/14 05:25:31;;;;;;;25.77;13.20;;;-1.90;57.70;;;;;;4972884;28;46915;-63
2022/12/14 05:27:57;;;;;;;25.63;13.13;;;-1.90;57.90;;;;;;4975972;28;46529;-65
2022/12/14 05:30:22;;;;;;;21.20;11.80;;;-2.10;57.50;;;;;;4972342;28;46441;-64
2022/12/14 05:32:48;;;;;;;20.87;11.80;;;-1.80;57.40;;;;;;4973033;28;46367;-64
2022/12/14 05:35:14;;;;;;;18.63;11.10;;;-1.80;57.50;;;;;;4973534;28;45882;-64
2022/12/14 05:37:41;;;;;;;18.92;11.63;;;-1.90;57.70;;;;;;4974629;28;46426;-63
2022/12/14 05:40:07;;;;;;;20.88;11.85;;;-2.00;58.00;;;;;;4971929;28;46496;-65
2022/12/14 05:42:33;;;;;;;20.10;11.15;;;-1.90;58.20;;;;;;4972751;28;46525;-65
2022/12/14 05:44:59;;;;;;;22.80;12.17;;;-1.90;58.30;;;;;;4971115;28;46404;-64
2022/12/14 05:47:24;;;;;;;23.33;11.50;;;-2.00;58.20;;;;;;4973028;28;46445;-65
2022/12/14 05:49:50;;;;;;;19.40;11.63;;;-2.00;57.40;;;;;;4972590;28;46452;-64
2022/12/14 05:52:16;;;;;;;22.13;12.00;;;-2.00;58.50;;;;;;4971723;28;46622;-64
2022/12/14 05:54:42;;;;;;;23.75;11.75;;;-2.00;58.30;;;;;;4971982;28;46587;-64
2022/12/14 05:57:07;;;;;;;20.33;11.10;;;-1.90;58.40;;;;;;4971386;28;46462;-64
2022/12/14 05:59:33;;;;;;;20.70;11.10;;;-1.90;58.40;;;;;;4972580;28;46601;-63
2022/12/14 06:01:58;;;;;;;22.03;12.27;;;-1.90;57.20;;;;;;4972061;28;46652;-64
2022/12/14 06:04:25;;;;;;;25.73;13.00;;;-1.80;58.30;;;;;;4974536;28;46392;-63
2022/12/14 06:06:51;;;;;;;20.60;11.57;;;-1.80;58.10;;;;;;4973040;28;46380;-63
2022/12/14 06:09:17;;;;;;;19.80;10.87;;;-1.70;58.20;;;;;;4971697;28;46444;-64
2022/12/14 06:11:44;;;;;;;24.17;10.98;;;-1.80;57.20;;;;;;4970753;28;46652;-63
2022/12/14 06:14:10;;;;;;;20.10;11.50;;;-1.90;58.40;;;;;;4974028;28;46400;-64
2022/12/14 06:16:40;;;;;;;20.48;11.10;;;-1.90;58.60;;;;;;4972231;28;45802;-64
2022/12/14 06:19:06;;;;;;;20.92;11.85;;;-2.00;58.70;;;;;;4969151;28;46539;-64
2022/12/14 06:21:36;;;;;;;25.87;13.80;;;-1.90;57.70;;;;;;4972103;28;46435;-64
2022/12/14 06:24:03;;;;;;;22.80;12.95;;;-1.80;58.70;;;;;;4971479;28;46432;-63
2022/12/14 06:26:30;;;;;;;21.02;12.25;;;-1.80;58.40;;;;;;4973186;28;45798;-64
2022/12/14 06:28:57;;;;;;;17.05;10.85;;;-1.70;58.30;;;;;;4972613;28;46899;-63
2022/12/14 06:31:27;;;;;;;26.35;14.57;;;-1.80;57.20;;;;;;4973208;28;46265;-63
2022/12/14 06:33:54;;;;;;;22.90;13.18;;;-1.80;58.50;;;;;;4972145;28;46011;-63
2022/12/14 06:36:25;;;;;;;23.10;12.40;;;-1.80;58.50;;;;;;4972339;28;46334;-63
2022/12/14 06:38:52;;;;;;;22.95;12.02;;;-1.80;58.40;;;;;;4972802;28;46007;-63
2022/12/14 06:41:18;;;;;;;24.92;12.75;;;-1.80;57.50;;;;;;4975097;28;46379;-63
2022/12/14 06:43:44;;;;;;;24.77;13.48;;;-1.80;58.80;;;;;;4978086;28;46373;-63
2022/12/14 06:46:12;;;;;;;22.40;12.60;;;-1.80;58.90;;;;;;4970287;28;46405;-63
2022/12/14 06:48:38;;;;;;;25.73;13.20;;;-1.70;59.00;;;;;;4974506;28;46395;-64
2022/12/14 06:51:05;;;;;;;31.23;14.10;;;-1.80;58.00;;;;;;4972360;28;47036;-63
2022/12/14 06:53:31;;;;;;;22.52;14.35;;;-1.80;59.20;;;;;;4972654;28;45999;-63
2022/12/14 06:56:14;;;;;;;22.85;12.63;;;-1.80;59.40;;;;;;4974710;28;46454;-64
2022/12/14 06:58:41;;;;;;;24.60;13.38;;;-1.80;59.40;;;;;;4972113;28;46532;-64
2022/12/14 07:01:11;;;;;;;25.50;12.95;;;-1.70;58.30;;;;;;4971271;28;47233;-65
2022/12/14 07:03:38;;;;;;;27.35;14.07;;;-1.60;59.40;;;;;;4971418;28;46424;-64
2022/12/14 07:06:05;;;;;;;26.45;14.10;;;-1.70;59.40;;;;;;4986207;28;46406;-64
2022/12/14 07:08:32;;;;;;;22.85;12.57;;;-1.70;59.30;;;;;;4971795;28;46408;-64
2022/12/14 07:11:03;;;;;;;26.92;13.63;;;-1.70;59.20;;;;;;4971382;28;46127;-65
2022/12/14 07:13:28;;;;;;;25.17;13.25;;;-1.60;59.40;;;;;;4974189;28;46391;-64
2022/12/14 07:15:56;;;;;;;27.47;13.60;;;-1.60;59.30;;;;;;4973656;28;46491;-64
2022/12/14 07:18:22;;;;;;;27.73;14.68;;;-1.40;58.90;;;;;;4970817;28;46618;-64
2022/12/14 07:21:05;;;;;;;28.77;14.30;;;-1.40;58.90;;;;;;4971584;28;47570;-63
2022/12/14 07:23:32;;;;;;;26.10;13.88;;;-1.40;58.90;;;;;;4966269;28;46748;-63
2022/12/14 07:26:05;;;;;;;28.40;14.45;;;-1.00;59.40;;;;;;4969640;28;46566;-63
2022/12/14 07:28:32;;;;;;;24.52;14.13;;;-1.50;59.20;;;;;;4972351;28;46483;-64
2022/12/14 07:30:59;;;;;;;24.52;14.13;;;-1.50;58.40;;;;;;4969970;28;46572;-64
2022/12/14 07:33:26;;;;;;;25.50;13.88;;;-1.50;59.60;;;;;;4970775;28;46423;-64
2022/12/14 07:35:59;;;;;;;26.95;13.70;;;-1.40;59.70;;;;;;4968122;28;46481;-64
2022/12/14 07:38:25;;;;;;;23.77;13.95;;;-1.30;59.50;;;;;;4971831;28;46343;-64
2022/12/14 07:40:51;;;;;;;30.92;18.38;;;-1.30;58.20;;;;;;4966742;28;47429;-64
2022/12/14 07:43:17;;;;;;;25.47;16.30;;;-1.20;59.30;;;;;;4969353;28;46712;-63
2022/12/14 07:45:43;;;;;;;32.13;16.30;;;-1.20;59.50;;;;;;4969220;28;46435;-63
2022/12/14 07:48:09;;;;;;;30.57;14.83;;;-1.10;59.60;;;;;;4972865;28;45963;-63
2022/12/14 07:50:35;;;;;;;24.23;13.23;;;-1.20;59.80;;;;;;4966139;28;46715;-63
2022/12/14 07:53:00;;;;;;;24.80;13.23;;;-1.30;59.90;;;;;;4971977;28;46446;-63
2022/12/14 07:55:28;;;;;;;22.57;13.27;;;-1.20;60.10;;;;;;4969825;28;46594;-63
2022/12/14 07:57:54;;;;;;;23.35;13.65;;;-1.20;61.10;;;;;;4968727;28;46623;-64
2022/12/14 08:00:20;;;;;;;20.90;12.43;;;-1.00;59.80;;;;;;4972131;28;46434;-63
2022/12/14 08:02:45;;;;;;;24.30;13.27;;;-1.00;59.60;;;;;;4969694;28;46484;-63
2022/12/14 08:05:11;;;;;;;24.33;13.80;;;-1.00;59.50;;;;;;4968406;28;46086;-62
2022/12/14 08:07:37;;;;;;;23.57;14.10;;;-0.90;59.70;;;;;;4971339;28;46726;-64
2022/12/14 08:10:03;;;;;;;25.57;15.63;;;-0.90;58.80;;;;;;4970076;28;48381;-63
2022/12/14 08:12:28;;;;;;;23.53;13.87;;;-0.90;59.80;;;;;;4971250;28;46422;-63
2022/12/14 08:14:54;;;;;;;26.13;14.57;;;-0.80;59.80;;;;;;4970729;28;46586;-63
2022/12/14 08:17:19;;;;;;;27.20;14.60;;;-0.80;60.00;;;;;;4969198;28;46392;-63
2022/12/14 08:19:45;;;;;;;26.80;14.37;;;-0.60;60.40;;;;;;4968021;28;46474;-64
2022/12/14 08:22:11;;;;;;;27.70;14.73;;;-0.50;59.50;;;;;;4969569;28;47445;-63
2022/12/14 08:24:36;;;;;;;23.60;15.23;;;-0.50;59.70;;;;;;4966761;28;46472;-63
2022/12/14 08:27:02;;;;;;;21.87;13.60;;;-0.40;59.80;;;;;;4969278;28;46712;-63
2022/12/14 08:29:27;;;;;;;23.67;12.90;;;-0.30;59.50;;;;;;4970172;28;47163;-63
2022/12/14 08:31:56;;;;;;;26.60;14.00;;;-0.20;59.40;;;;;;4971350;28;46432;-64
2022/12/14 08:34:22;;;;;;;24.17;14.20;;;-0.40;60.10;;;;;;4967414;28;46503;-63
2022/12/14 08:36:49;;;;;;;26.92;14.35;;;-0.30;59.40;;;;;;4971332;28;46464;-63
2022/12/14 08:39:14;;;;;;;26.38;14.07;;;-0.30;59.50;;;;;;4985051;28;48682;-64
2022/12/14 08:41:40;;;;;;;30.90;14.60;;;-0.30;58.70;;;;;;4968835;28;46432;-64
2022/12/14 08:44:06;;;;;;;27.20;14.13;;;-0.30;59.80;;;;;;4968539;28;46494;-63
2022/12/14 08:46:34;;;;;;;29.27;15.68;;;-0.20;59.80;;;;;;4975415;28;46415;-62
2022/12/14 08:48:59;;;;;;;31.42;14.10;;;-0.20;59.60;;;;;;4969924;28;47299;-63
2022/12/14 08:51:26;;;;;;;24.80;14.70;;;-0.20;58.90;;;;;;4967542;28;46619;-63
2022/12/14 08:53:53;;;;;;;25.85;14.18;;;-0.10;59.90;;;;;;4969978;28;46523;-63
2022/12/14 08:56:22;;;;;;;29.98;13.52;;;0.10;59.60;;;;;;4967611;28;46525;-63
2022/12/14 08:58:48;;;;;;;24.75;14.35;;;0.00;59.60;;;;;;4967395;28;46471;-65
2022/12/14 09:01:22;;;;;;;21.70;13.87;;;-0.10;60.00;;;;;;4967873;28;46444;-63
2022/12/14 09:03:49;;;;;;;22.77;13.95;;;-0.10;60.20;;;;;;4971084;28;46424;-62
2022/12/14 09:06:18;;;;;;;24.83;14.40;;;0.00;60.00;;;;;;4970415;28;46515;-63
2022/12/14 09:08:44;;;;;;;24.45;15.45;;;-0.10;60.00;;;;;;4966812;28;46672;-63
2022/12/14 09:11:12;;;;;;;30.73;17.63;;;-0.10;60.00;;;;;;4969463;28;46444;-63
2022/12/14 09:13:38;;;;;;;27.63;15.07;;;-0.10;60.50;;;;;;4971428;28;46447;-63
2022/12/14 09:16:06;;;;;;;74.75;34.58;;;-0.10;60.20;;;;;;4972266;28;46559;-63
2022/12/14 09:18:33;;;;;;;108.43;41.00;;;0.00;60.00;;;;;;4967726;28;48262;-63
2022/12/14 09:20:59;;;;;;;120.70;45.60;;;0.10;60.00;;;;;;4970068;28;46729;-63
2022/12/14 09:23:26;;;;;;;31.50;15.70;;;0.20;60.00;;;;;;4967732;28;46629;-65
2022/12/14 09:26:22;;;;;;;112.68;49.95;;;0.30;60.00;;;;;;4966630;28;46352;-63
2022/12/14 09:28:53;;;;;;;52.43;29.80;;;0.30;60.30;;;;;;4952562;28;46635;-62
2022/12/14 09:31:21;;;;;;;33.15;17.77;;;0.30;60.00;;;;;;4969045;28;46566;-62
2022/12/14 09:33:47;;;;;;;42.80;21.33;;;0.30;61.50;;;;;;4968092;28;46384;-64
2022/12/14 09:36:14;;;;;;;49.80;24.52;;;0.40;61.70;;;;;;4969444;28;46913;-63
2022/12/14 09:38:41;;;;;;;28.95;16.98;;;0.60;61.30;;;;;;4970456;28;46649;-62
2022/12/14 09:41:19;;;;;;;26.88;16.90;;;0.60;60.00;;;;;;4969977;28;47002;-62
2022/12/14 09:44:04;;;;;;;24.52;14.05;;;0.70;61.10;;;;;;4967277;28;46283;-62
2022/12/14 09:46:41;;;;;;;25.00;14.57;;;0.80;60.80;;;;;;4967062;28;46091;-62
2022/12/14 09:49:25;;;;;;;32.40;18.75;;;0.70;60.70;;;;;;4967860;28;46851;-62
2022/12/14 09:51:53;;;;;;;37.08;20.58;;;0.70;61.00;;;;;;4970493;28;46424;-64
2022/12/14 09:54:25;;;;;;;33.05;19.17;;;0.70;61.20;;;;;;4968614;28;46446;-63
2022/12/14 09:56:53;;;;;;;36.78;19.75;;;0.90;61.10;;;;;;4980614;28;46829;-62
2022/12/14 09:59:19;;;;;;;25.58;14.98;;;1.00;60.50;;;;;;4964237;28;46348;-63
2022/12/14 10:01:57;;;;;;;30.27;17.92;;;1.00;59.50;;;;;;4966514;28;46520;-64
2022/12/14 10:04:34;;;;;;;34.40;17.85;;;1.00;60.70;;;;;;4970624;28;46581;-64
2022/12/14 10:07:07;;;;;;;36.38;18.02;;;0.90;60.80;;;;;;4968365;28;46536;-63
2022/12/14 10:09:48;;;;;;;22.67;13.63;;;0.90;60.90;;;;;;4972641;28;46426;-63
2022/12/14 10:12:42;;;;;;;27.13;16.58;;;0.80;61.50;;;;;;4974800;28;45963;-64
2022/12/14 10:15:29;;;;;;;36.03;19.42;;;0.80;61.70;;;;;;4966217;28;46985;-63
2022/12/14 10:18:09;;;;;;;28.05;14.30;;;0.90;61.40;;;;;;4970253;28;45928;-63
2022/12/14 10:20:55;;;;;;;28.83;15.02;;;0.90;61.10;;;;;;4972217;28;46661;-63
2022/12/14 10:23:23;;;;;;;29.92;16.95;;;0.80;61.30;;;;;;4971518;28;46537;-65
2022/12/14 10:25:56;;;;;;;26.02;15.25;;;0.90;61.40;;;;;;4971420;28;45873;-64
2022/12/14 10:28:49;;;;;;;24.65;13.80;;;1.00;60.90;;;;;;4971606;28;46619;-61
2022/12/14 10:31:25;;;;;;;30.10;17.05;;;1.00;60.70;;;;;;4971723;28;46396;-62
2022/12/14 10:33:54;;;;;;;26.27;16.45;;;1.00;61.00;;;;;;4967363;28;46450;-62
2022/12/14 10:36:35;;;;;;;30.83;17.38;;;1.20;60.50;;;;;;4969337;28;46361;-65
2022/12/14 10:39:38;;;;;;;33.22;16.92;;;1.10;60.80;;;;;;4968843;28;46467;-62
2022/12/14 10:42:24;;;;;;;36.95;19.70;;;1.00;60.20;;;;;;4973804;28;46629;-64
2022/12/14 10:45:01;;;;;;;33.17;19.15;;;1.00;61.70;;;;;;4972798;28;46620;-62
2022/12/14 10:47:41;;;;;;;34.17;17.50;;;1.00;61.60;;;;;;4974012;28;46493;-63
2022/12/14 10:50:40;;;;;;;25.58;16.45;;;1.00;61.40;;;;;;4969391;28;46515;-63
2022/12/14 10:53:14;;;;;;;27.33;15.25;;;1.30;60.80;;;;;;4971005;28;46044;-62
2022/12/14 10:55:43;;;;;;;32.75;17.48;;;1.30;60.60;;;;;;4970446;28;47113;-63
2022/12/14 10:58:10;;;;;;;27.85;16.00;;;1.40;61.10;;;;;;4972884;28;46438;-63
2022/12/14 11:00:36;;;;;;;29.50;17.10;;;1.30;60.90;;;;;;4971841;28;46019;-63
2022/12/14 11:03:05;;;;;;;33.10;16.90;;;1.40;61.00;;;;;;4966996;28;46546;-64
2022/12/14 11:05:53;;;;;;;30.10;17.40;;;1.40;61.00;;;;;;4964895;28;46426;-63
2022/12/14 11:08:47;;;;;;;27.58;16.17;;;1.40;61.00;;;;;;4967262;28;46378;-61
2022/12/14 11:11:24;;;;;;;25.02;15.55;;;1.50;60.80;;;;;;4969014;28;46495;-63
2022/12/14 11:14:04;;;;;;;23.67;15.45;;;1.80;60.50;;;;;;4967820;28;46293;-62
2022/12/14 11:16:36;;;;;;;36.25;21.88;;;1.70;61.10;;;;;;4968312;28;46358;-61
2022/12/14 11:19:03;;;;;;;22.05;14.82;;;1.90;59.60;;;;;;4967894;28;46439;-64
2022/12/14 11:21:37;;;;;;;28.38;15.63;;;1.90;58.20;;;;;;4969566;28;46550;-63
2022/12/14 11:24:04;;;;;;;25.50;15.02;;;1.80;59.70;;;;;;4969836;28;47661;-63
2022/12/14 11:26:39;;;;;;;29.25;15.55;;;1.80;60.00;;;;;;4970777;28;46771;-63
2022/12/14 11:29:15;;;;;;;25.13;15.65;;;1.60;60.60;;;;;;4967635;28;46473;-63
2022/12/14 11:31:46;;;;;;;23.40;15.38;;;1.60;59.80;;;;;;4969536;28;45886;-62
2022/12/14 11:34:32;;;;;;;25.75;15.60;;;1.50;61.10;;;;;;4969957;28;46388;-62
2022/12/14 11:37:12;;;;;;;20.60;14.40;;;1.50;61.30;;;;;;4968480;28;46462;-63
2022/12/14 11:39:41;;;;;;;26.88;17.50;;;1.50;61.70;;;;;;4968869;28;46369;-63
2022/12/14 11:42:17;;;;;;;20.48;14.50;;;1.50;61.70;;;;;;4970975;28;46457;-62
2022/12/14 11:44:45;;;;;;;26.20;15.50;;;1.50;61.50;;;;;;4968630;28;46556;-63
2022/12/14 11:47:27;;;;;;;24.20;15.05;;;1.50;61.30;;;;;;4970888;28;46643;-62
2022/12/14 11:49:55;;;;;;;23.88;15.82;;;1.40;61.00;;;;;;4969700;28;46652;-61
2022/12/14 11:52:38;;;;;;;26.00;16.88;;;1.40;62.00;;;;;;4973565;28;46420;-63
2022/12/14 11:55:11;;;;;;;25.45;16.00;;;1.30;62.20;;;;;;4970116;28;46460;-64
2022/12/14 11:57:45;;;;;;;21.63;14.88;;;1.30;62.20;;;;;;4971350;28;46578;-64
2022/12/14 12:00:28;;;;;;;22.65;13.77;;;1.20;62.20;;;;;;4972463;28;46427;-63
2022/12/14 12:03:00;;;;;;;24.55;14.32;;;1.10;62.40;;;;;;4987513;28;46448;-62
2022/12/14 12:05:30;;;;;;;26.60;15.85;;;1.20;62.40;;;;;;4969110;28;47465;-63
2022/12/14 12:07:57;;;;;;;21.52;14.15;;;1.30;61.80;;;;;;4966747;28;46495;-62
2022/12/14 12:10:36;;;;;;;24.63;14.70;;;1.40;60.70;;;;;;4970578;28;46385;-64
2022/12/14 12:13:14;;;;;;;21.45;14.40;;;1.40;61.90;;;;;;4968683;28;46387;-63
2022/12/14 12:15:48;;;;;;;21.95;14.15;;;1.50;61.90;;;;;;4969149;28;46742;-62
2022/12/14 12:18:51;;;;;;;23.25;14.68;;;1.50;61.90;;;;;;4972138;28;46355;-63
2022/12/14 12:21:28;;;;;;;29.98;17.73;;;1.40;61.00;;;;;;4969505;28;46435;-63
2022/12/14 12:24:03;;;;;;;24.80;14.90;;;1.40;61.80;;;;;;4968081;28;46588;-63
2022/12/14 12:26:44;;;;;;;20.80;13.23;;;1.30;62.20;;;;;;4967766;28;46461;-63
2022/12/14 12:29:29;;;;;;;19.88;13.70;;;1.20;62.40;;;;;;4967644;28;46496;-62
2022/12/14 12:32:05;;;;;;;23.25;14.60;;;1.20;61.50;;;;;;4966226;28;46729;-62
2022/12/14 12:34:45;;;;;;;21.95;15.10;;;1.20;62.80;;;;;;4965187;28;46384;-62
2022/12/14 12:37:19;;;;;;;36.20;20.48;;;1.20;62.60;;;;;;4969587;28;46694;-61
2022/12/14 12:39:51;;;;;;;21.25;13.50;;;1.40;61.50;;;;;;4970302;28;45850;-63
2022/12/14 12:42:25;;;;;;;34.92;19.10;;;1.40;62.70;;;;;;4967731;28;45998;-62
2022/12/14 12:45:02;;;;;;;26.80;16.05;;;1.50;62.90;;;;;;4965557;28;46461;-62
2022/12/14 12:47:38;;;;;;;24.08;15.35;;;1.60;62.30;;;;;;4966434;28;46525;-61
2022/12/14 12:50:14;;;;;;;20.80;13.13;;;1.70;61.00;;;;;;4968740;28;45893;-64
2022/12/14 12:52:49;;;;;;;25.85;15.18;;;1.70;62.10;;;;;;4970016;28;46046;-63
2022/12/14 12:55:18;;;;;;;114.60;57.22;;;1.80;61.90;;;;;;4984212;28;46479;-63
2022/12/14 12:57:47;;;;;;;22.95;14.15;;;2.00;61.80;;;;;;4967760;28;46627;-64
2022/12/14 13:00:24;;;;;;;19.85;12.50;;;2.10;61.20;;;;;;4964834;28;46847;-64
2022/12/14 13:03:18;;;;;;;18.65;10.90;;;2.00;61.40;;;;;;4969393;28;45836;-64
2022/12/14 13:05:44;;;;;;;16.10;11.40;;;2.20;61.00;;;;;;4965892;28;46531;-62
2022/12/14 13:08:30;;;;;;;18.05;12.48;;;2.50;60.80;;;;;;4967068;28;46824;-62
2022/12/14 13:10:59;;;;;;;16.48;11.52;;;2.50;59.40;;;;;;4968734;28;46012;-62